createdAt,value
2022-10-12T00:00:57.548Z,60.10
2022-10-12T00:02:59.831Z,60.83
2022-10-12T00:05:02.629Z,60.88
2022-10-12T00:07:04.572Z,61.14
2022-10-12T00:09:06.923Z,61.01
2022-10-12T00:11:12.744Z,61.21
2022-10-12T00:13:15.219Z,60.87
2022-10-12T00:15:17.351Z,60.96
2022-10-12T00:17:19.832Z,61.05
2022-10-12T00:19:21.990Z,60.86
2022-10-12T00:21:25.412Z,60.38
2022-10-12T00:23:27.342Z,60.54
2022-10-12T00:25:29.673Z,60.19
2022-10-12T00:27:31.671Z,60.43
2022-10-12T00:29:33.798Z,60.50
2022-10-12T00:31:35.907Z,60.59
2022-10-12T00:33:41.415Z,61.16
2022-10-12T00:35:43.610Z,60.68
2022-10-12T00:37:45.666Z,60.56
2022-10-12T00:39:49.214Z,61.01
2022-10-12T00:42:19.346Z,61.60
2022-10-12T00:44:43.867Z,60.96
2022-10-12T00:46:46.886Z,60.79
2022-10-12T00:48:54.236Z,61.37
2022-10-12T00:50:59.879Z,61.31
2022-10-12T00:53:04.584Z,60.82
2022-10-12T00:55:09.588Z,60.87
2022-10-12T00:57:15.253Z,61.05
2022-10-12T00:59:21.812Z,61.17
2022-10-12T01:01:24.015Z,60.95
2022-10-12T01:03:26.146Z,60.95
2022-10-12T01:05:31.226Z,60.98
2022-10-12T01:07:33.465Z,60.99
2022-10-12T01:09:35.571Z,61.00
2022-10-12T01:11:37.577Z,60.90
2022-10-12T01:13:40.129Z,60.75
2022-10-12T01:16:24.420Z,60.55
2022-10-12T01:18:35.918Z,60.80
2022-10-12T01:20:53.615Z,60.83
2022-10-12T01:23:15.408Z,61.22
2022-10-12T01:25:40.519Z,61.37
2022-10-12T01:28:44.249Z,61.58
2022-10-12T01:30:51.701Z,60.69
2022-10-12T01:33:46.100Z,61.45
2022-10-12T01:36:15.875Z,61.19
2022-10-12T01:38:30.465Z,61.16
2022-10-12T01:40:42.284Z,60.84
2022-10-12T01:42:46.024Z,60.42
2022-10-12T01:44:48.124Z,60.57
2022-10-12T01:46:52.078Z,60.68
2022-10-12T01:49:00.710Z,60.31
2022-10-12T01:51:03.871Z,60.34
2022-10-12T01:53:47.285Z,61.03
2022-10-12T01:56:11.497Z,60.51
2022-10-12T01:58:22.633Z,60.86
2022-10-12T02:00:24.985Z,60.82
2022-10-12T02:02:35.898Z,61.24
2022-10-12T02:04:57.504Z,61.77
2022-10-12T02:07:05.856Z,61.04
2022-10-12T02:09:30.003Z,61.56
2022-10-12T02:11:37.915Z,61.20
2022-10-12T02:13:53.709Z,61.21
2022-10-12T02:15:58.690Z,61.35
2022-10-12T02:18:04.429Z,61.28
2022-10-12T02:20:10.264Z,61.16
2022-10-12T02:22:15.257Z,61.20
2022-10-12T02:24:19.126Z,61.13
2022-10-12T02:26:22.114Z,61.20
2022-10-12T02:28:28.506Z,61.24
2022-10-12T02:30:38.713Z,61.45
2022-10-12T02:32:51.852Z,61.76
2022-10-12T02:35:13.217Z,61.67
2022-10-12T02:37:40.886Z,61.78
2022-10-12T02:39:50.594Z,61.84
2022-10-12T02:42:00.333Z,61.93
2022-10-12T02:44:06.463Z,61.67
2022-10-12T02:46:10.889Z,61.34
2022-10-12T02:48:18.103Z,61.58
2022-10-12T02:50:22.968Z,61.48
2022-10-12T02:52:29.271Z,61.60
2022-10-12T02:54:31.387Z,61.48
2022-10-12T02:56:33.561Z,61.36
2022-10-12T02:58:35.822Z,61.57
2022-10-12T03:00:38.130Z,61.82
2022-10-12T03:02:40.519Z,61.77
2022-10-12T03:04:43.010Z,61.32
2022-10-12T03:06:45.259Z,61.30
2022-10-12T03:08:47.210Z,61.78
2022-10-12T03:10:49.164Z,61.49
2022-10-12T03:12:51.247Z,61.56
2022-10-12T03:14:53.256Z,61.94
2022-10-12T03:16:55.458Z,61.91
2022-10-12T03:18:57.514Z,61.89
2022-10-12T03:20:59.689Z,61.79
2022-10-12T03:23:01.721Z,61.98
2022-10-12T03:25:04.276Z,62.36
2022-10-12T03:27:08.534Z,61.90
2022-10-12T03:29:11.113Z,61.88
2022-10-12T03:31:13.029Z,62.12
2022-10-12T03:33:15.061Z,62.26
2022-10-12T03:35:17.781Z,62.09
2022-10-12T03:37:19.990Z,61.94
2022-10-12T03:39:21.963Z,62.04
2022-10-12T03:41:24.140Z,61.78
2022-10-12T03:43:26.371Z,61.96
2022-10-12T03:45:30.146Z,61.96
2022-10-12T03:47:35.443Z,62.01
2022-10-12T03:49:37.761Z,61.82
2022-10-12T03:51:39.711Z,62.15
2022-10-12T03:53:45.378Z,62.10
2022-10-12T03:55:47.856Z,62.14
2022-10-12T03:57:50.717Z,61.68
2022-10-12T03:59:54.334Z,62.17
2022-10-12T04:01:56.614Z,62.13
2022-10-12T04:03:59.026Z,62.07
2022-10-12T04:06:01.349Z,62.51
2022-10-12T04:08:03.468Z,62.33
2022-10-12T04:10:06.599Z,62.38
2022-10-12T04:12:08.690Z,62.38
2022-10-12T04:14:11.219Z,62.07
2022-10-12T04:16:13.687Z,62.15
2022-10-12T04:18:15.870Z,62.14
2022-10-12T04:20:18.014Z,62.09
2022-10-12T04:22:20.330Z,62.07
2022-10-12T04:24:22.206Z,62.47
2022-10-12T04:26:24.231Z,62.25
2022-10-12T04:28:26.284Z,62.01
2022-10-12T04:30:28.336Z,61.94
2022-10-12T04:32:31.244Z,62.27
2022-10-12T04:34:33.332Z,61.77
2022-10-12T04:36:35.813Z,61.94
2022-10-12T04:38:38.135Z,62.15
2022-10-12T04:40:40.084Z,61.89
2022-10-12T04:42:42.211Z,61.79
2022-10-12T04:44:44.362Z,61.75
2022-10-12T04:46:46.557Z,61.92
2022-10-12T04:48:48.632Z,61.42
2022-10-12T04:50:51.249Z,61.59
2022-10-12T04:52:53.359Z,61.71
2022-10-12T04:54:55.356Z,61.59
2022-10-12T04:56:57.360Z,62.07
2022-10-12T04:58:59.601Z,61.96
2022-10-12T05:01:02.033Z,61.89
2022-10-12T05:03:05.990Z,61.82
2022-10-12T05:05:08.444Z,61.67
2022-10-12T05:07:13.219Z,61.74
2022-10-12T05:09:17.115Z,61.99
2022-10-12T05:11:19.955Z,61.84
2022-10-12T05:13:22.168Z,61.97
2022-10-12T05:15:24.716Z,61.93
2022-10-12T05:17:26.772Z,61.78
2022-10-12T05:19:28.908Z,61.92
2022-10-12T05:21:31.330Z,61.52
2022-10-12T05:23:33.158Z,61.73
2022-10-12T05:25:35.432Z,61.75
2022-10-12T05:27:37.566Z,62.04
2022-10-12T05:29:39.523Z,61.98
2022-10-12T05:31:41.779Z,62.00
2022-10-12T05:33:43.712Z,62.15
2022-10-12T05:35:48.794Z,61.84
2022-10-12T05:37:52.300Z,62.44
2022-10-12T05:39:54.640Z,62.08
2022-10-12T05:41:56.432Z,62.31
2022-10-12T05:43:58.214Z,62.28
2022-10-12T05:46:00.301Z,62.63
2022-10-12T05:48:02.238Z,62.82
2022-10-12T05:50:04.554Z,62.75
2022-10-12T05:52:06.506Z,62.59
2022-10-12T05:54:08.696Z,62.79
2022-10-12T05:56:10.622Z,62.50
2022-10-12T05:58:12.383Z,62.69
2022-10-12T06:00:14.487Z,62.51
2022-10-12T06:02:18.652Z,62.42
2022-10-12T06:04:20.818Z,62.24
2022-10-12T06:06:22.838Z,62.24
2022-10-12T06:08:24.790Z,62.13
2022-10-12T06:10:29.920Z,61.85
2022-10-12T06:12:33.011Z,61.88
2022-10-12T06:14:34.863Z,62.01
2022-10-12T06:16:36.923Z,61.95
2022-10-12T06:18:38.916Z,61.88
2022-10-12T06:20:40.869Z,61.77
2022-10-12T06:22:42.908Z,61.65
2022-10-12T06:24:44.973Z,61.79
2022-10-12T06:26:46.970Z,61.67
2022-10-12T06:28:49.119Z,61.78
2022-10-12T06:30:56.528Z,61.72
2022-10-12T06:32:58.582Z,61.69
2022-10-12T06:35:03.756Z,61.33
2022-10-12T06:37:05.682Z,61.83
2022-10-12T06:39:08.799Z,61.98
2022-10-12T06:41:12.031Z,61.83
2022-10-12T06:43:14.431Z,61.40
2022-10-12T06:45:16.794Z,61.46
2022-10-12T06:47:22.034Z,61.49
2022-10-12T06:49:24.001Z,61.45
2022-10-12T06:51:26.166Z,61.75
2022-10-12T06:53:31.228Z,61.73
2022-10-12T06:55:33.538Z,61.74
2022-10-12T06:57:37.347Z,61.43
2022-10-12T06:59:39.563Z,61.65
2022-10-12T07:01:42.133Z,61.29
2022-10-12T07:03:46.508Z,61.09
2022-10-12T07:05:48.674Z,61.40
2022-10-12T07:07:50.821Z,61.16
2022-10-12T07:09:52.718Z,60.90
2022-10-12T07:11:54.638Z,60.98
2022-10-12T07:13:58.242Z,60.89
2022-10-12T07:16:00.280Z,61.07
2022-10-12T07:18:02.488Z,60.85
2022-10-12T07:20:05.298Z,60.49
2022-10-12T07:22:07.535Z,60.49
2022-10-12T07:24:12.700Z,60.64
2022-10-12T07:26:14.725Z,60.55
2022-10-12T07:28:20.748Z,60.53
2022-10-12T07:30:22.836Z,60.49
2022-10-12T07:32:24.659Z,60.46
2022-10-12T07:34:27.432Z,60.33
2022-10-12T07:36:47.292Z,60.64
2022-10-12T07:38:51.176Z,60.62
2022-10-12T07:40:53.262Z,60.23
2022-10-12T07:45:17.560Z,59.89
2022-10-12T07:47:19.691Z,60.06
2022-10-12T07:49:21.746Z,60.11
2022-10-12T07:51:23.566Z,59.95
2022-10-12T07:53:25.387Z,59.89
2022-10-12T07:55:27.311Z,59.71
2022-10-12T07:57:29.751Z,59.44
2022-10-12T07:59:31.590Z,59.39
2022-10-12T08:01:34.769Z,59.40
2022-10-12T08:03:36.829Z,59.63
2022-10-12T08:05:38.959Z,59.39
2022-10-12T08:07:41.504Z,58.89
2022-10-12T08:09:43.410Z,59.17
2022-10-12T08:11:45.149Z,59.18
2022-10-12T08:13:47.963Z,58.94
2022-10-12T08:15:50.879Z,58.65
2022-10-12T08:17:53.122Z,58.92
2022-10-12T08:19:55.100Z,59.02
2022-10-12T08:21:57.036Z,58.75
2022-10-12T08:23:59.238Z,58.75
2022-10-12T08:26:01.805Z,58.45
2022-10-12T08:28:05.482Z,58.38
2022-10-12T08:30:08.228Z,58.57
2022-10-12T08:32:10.286Z,58.25
2022-10-12T08:34:12.577Z,58.76
2022-10-12T08:36:14.611Z,58.21
2022-10-12T08:38:17.252Z,58.85
2022-10-12T08:40:29.028Z,59.30
2022-10-12T08:42:41.728Z,59.10
2022-10-12T08:44:53.026Z,59.39
2022-10-12T08:47:09.156Z,58.85
2022-10-12T08:49:32.124Z,59.17
2022-10-12T08:51:44.552Z,58.94
2022-10-12T08:53:55.003Z,58.76
2022-10-12T08:55:57.130Z,58.75
2022-10-12T08:57:59.258Z,59.23
2022-10-12T09:00:02.875Z,59.38
2022-10-12T09:02:07.423Z,58.86
2022-10-12T09:04:25.944Z,58.94
2022-10-12T09:06:37.574Z,58.65
2022-10-12T09:09:04.943Z,58.81
2022-10-12T09:11:30.208Z,58.68
2022-10-12T09:13:47.532Z,58.90
2022-10-12T09:15:57.366Z,58.92
2022-10-12T09:18:01.852Z,59.33
2022-10-12T09:20:30.018Z,58.76
2022-10-12T09:22:34.558Z,59.17
2022-10-12T09:24:39.454Z,58.98
2022-10-12T09:26:41.631Z,58.50
2022-10-12T09:28:52.273Z,58.67
2022-10-12T09:31:30.550Z,59.21
2022-10-12T09:33:46.319Z,58.92
2022-10-12T09:35:51.129Z,58.80
2022-10-12T09:37:54.772Z,59.26
2022-10-12T09:39:58.134Z,58.73
2022-10-12T09:42:00.385Z,58.88
2022-10-12T09:44:06.265Z,58.14
2022-10-12T09:46:15.149Z,58.01
2022-10-12T09:48:24.769Z,58.05
2022-10-12T09:50:40.787Z,58.19
2022-10-12T09:52:45.117Z,58.31
2022-10-12T09:55:20.866Z,57.47
2022-10-12T09:57:28.280Z,57.89
2022-10-12T09:59:44.619Z,57.81
2022-10-12T10:02:17.536Z,56.83
2022-10-12T10:04:29.964Z,57.41
2022-10-12T10:07:11.951Z,56.74
2022-10-12T10:09:34.810Z,57.21
2022-10-12T10:11:36.928Z,57.41
2022-10-12T10:13:43.666Z,57.23
2022-10-12T10:15:50.004Z,57.00
2022-10-12T10:17:57.772Z,57.06
2022-10-12T10:20:03.955Z,56.91
2022-10-12T10:22:09.388Z,57.08
2022-10-12T10:24:25.024Z,57.07
2022-10-12T10:26:29.374Z,56.59
2022-10-12T10:28:34.060Z,56.35
2022-10-12T10:30:40.915Z,56.93
2022-10-12T10:32:44.765Z,56.74
2022-10-12T10:34:46.841Z,56.93
2022-10-12T10:36:54.283Z,56.50
2022-10-12T10:39:16.602Z,57.07
2022-10-12T10:41:18.721Z,56.99
2022-10-12T10:43:31.884Z,56.84
2022-10-12T10:45:48.432Z,56.12
2022-10-12T10:47:50.480Z,56.38
2022-10-12T10:49:57.690Z,56.30
2022-10-12T10:52:01.654Z,56.48
2022-10-12T10:54:22.820Z,56.18
2022-10-12T10:56:30.594Z,56.07
2022-10-12T10:58:45.824Z,55.18
2022-10-12T11:00:50.005Z,54.81
2022-10-12T11:03:04.639Z,54.68
2022-10-12T11:05:14.201Z,55.77
2022-10-12T11:07:24.763Z,54.99
2022-10-12T11:09:30.773Z,55.54
2022-10-12T11:11:36.558Z,55.36
2022-10-12T11:14:00.850Z,55.38
2022-10-12T11:16:18.665Z,54.68
2022-10-12T11:18:23.905Z,54.66
2022-10-12T11:20:32.066Z,54.58
2022-10-12T11:22:53.262Z,54.73
2022-10-12T11:25:15.379Z,54.88
2022-10-12T11:27:31.134Z,55.16
2022-10-12T11:29:36.296Z,54.68
2022-10-12T11:32:26.636Z,55.11
2022-10-12T11:34:34.109Z,55.42
2022-10-12T11:36:51.265Z,54.83
2022-10-12T11:39:07.448Z,54.89
2022-10-12T11:41:34.898Z,54.83
2022-10-12T11:44:16.285Z,54.06
2022-10-12T11:46:27.674Z,54.24
2022-10-12T11:48:39.110Z,54.26
2022-10-12T11:50:48.570Z,54.77
2022-10-12T11:52:53.911Z,54.98
2022-10-12T11:55:14.516Z,54.99
2022-10-12T11:57:26.674Z,54.85
2022-10-12T11:59:39.642Z,54.74
2022-10-12T12:01:58.865Z,55.17
2022-10-12T12:04:40.108Z,55.33
2022-10-12T12:06:50.737Z,54.26
2022-10-12T12:08:55.848Z,55.33
2022-10-12T12:11:06.834Z,54.77
2022-10-12T12:13:19.491Z,54.88
2022-10-12T12:15:22.908Z,55.13
2022-10-12T12:17:31.735Z,54.90
2022-10-12T12:19:45.552Z,55.36
2022-10-12T12:22:23.794Z,54.71
2022-10-12T12:24:26.161Z,54.99
2022-10-12T12:26:30.908Z,54.85
2022-10-12T12:28:33.993Z,54.63
2022-10-12T12:30:40.954Z,54.14
2022-10-12T12:32:45.597Z,54.52
2022-10-12T12:35:00.773Z,54.41
2022-10-12T12:37:12.478Z,54.42
2022-10-12T12:39:26.540Z,54.32
2022-10-12T12:41:52.095Z,54.43
2022-10-12T12:44:04.780Z,54.51
2022-10-12T12:46:14.973Z,54.51
2022-10-12T12:48:39.881Z,54.28
2022-10-12T12:50:42.278Z,55.14
2022-10-12T12:52:45.178Z,55.04
2022-10-12T12:55:05.950Z,55.18
2022-10-12T12:57:17.529Z,55.22
2022-10-12T12:59:57.383Z,55.02
2022-10-12T13:02:41.101Z,54.38
2022-10-12T13:05:04.516Z,54.39
2022-10-12T13:07:29.645Z,54.97
2022-10-12T13:10:01.159Z,54.60
2022-10-12T13:12:18.316Z,55.10
2022-10-12T13:14:57.692Z,54.71
2022-10-12T13:19:29.593Z,55.25
2022-10-12T13:21:40.843Z,55.20
2022-10-12T13:23:50.107Z,55.10
2022-10-12T13:26:01.432Z,55.08
2022-10-12T13:28:08.325Z,55.02
2022-10-12T13:30:40.335Z,55.32
2022-10-12T13:32:55.824Z,54.83
2022-10-12T13:35:05.389Z,55.29
2022-10-12T13:37:12.918Z,55.21
2022-10-12T13:39:17.628Z,55.02
2022-10-12T13:41:20.905Z,55.25
2022-10-12T13:43:42.294Z,54.22
2022-10-12T13:45:46.123Z,54.70
2022-10-12T13:47:48.292Z,54.79
2022-10-12T13:49:50.980Z,54.32
2022-10-12T13:52:01.475Z,54.77
2022-10-12T13:54:17.082Z,54.68
2022-10-12T13:56:23.299Z,54.72
2022-10-12T13:58:30.394Z,54.74
2022-10-12T14:00:36.319Z,54.74
2022-10-12T14:02:38.425Z,55.00
2022-10-12T14:04:43.411Z,54.72
2022-10-12T14:06:59.037Z,55.29
2022-10-12T14:09:15.770Z,54.78
2022-10-12T14:11:17.999Z,54.96
2022-10-12T14:13:32.422Z,54.84
2022-10-12T14:15:37.349Z,55.00
2022-10-12T14:17:47.262Z,54.83
2022-10-12T14:19:54.595Z,54.78
2022-10-12T14:21:58.662Z,55.14
2022-10-12T14:24:08.228Z,54.99
2022-10-12T14:26:32.843Z,55.35
2022-10-12T14:28:37.912Z,55.41
2022-10-12T14:30:53.596Z,55.28
2022-10-12T14:33:08.770Z,55.01
2022-10-12T14:35:12.400Z,55.32
2022-10-12T14:37:17.195Z,55.18
2022-10-12T14:39:20.115Z,55.10
2022-10-12T14:41:45.299Z,55.12
2022-10-12T14:44:09.677Z,55.34
2022-10-12T14:46:15.333Z,54.93
2022-10-12T14:48:23.490Z,54.52
2022-10-12T14:50:26.337Z,55.00
2022-10-12T14:52:40.622Z,54.53
2022-10-12T14:54:42.928Z,54.78
2022-10-12T14:56:45.348Z,55.04
2022-10-12T14:58:50.050Z,55.39
2022-10-12T15:00:54.826Z,55.08
2022-10-12T15:02:57.825Z,55.47
2022-10-12T15:05:00.520Z,55.75
2022-10-12T15:07:02.572Z,55.58
2022-10-12T15:09:04.893Z,55.63
2022-10-12T15:11:07.434Z,55.78
2022-10-12T15:13:16.216Z,55.79
2022-10-12T15:15:35.481Z,56.38
2022-10-12T15:17:37.817Z,55.81
2022-10-12T15:19:41.156Z,55.75
2022-10-12T15:21:43.653Z,55.77
2022-10-12T15:23:48.150Z,56.46
2022-10-12T15:25:55.264Z,55.89
2022-10-12T15:27:58.183Z,56.12
2022-10-12T15:30:00.396Z,55.72
2022-10-12T15:32:02.494Z,56.06
2022-10-12T15:34:06.361Z,55.96
2022-10-12T15:36:09.163Z,55.85
2022-10-12T15:38:11.408Z,56.27
2022-10-12T15:40:14.045Z,56.21
2022-10-12T15:42:17.715Z,56.10
2022-10-12T15:44:21.229Z,56.37
2022-10-12T15:46:27.857Z,56.36
2022-10-12T15:48:30.031Z,56.15
2022-10-12T15:50:41.362Z,56.42
2022-10-12T15:52:43.787Z,56.24
2022-10-12T15:54:49.093Z,55.74
2022-10-12T15:56:51.242Z,55.86
2022-10-12T15:58:53.537Z,56.08
2022-10-12T16:00:56.732Z,56.01
2022-10-12T16:03:00.623Z,55.66
2022-10-12T16:05:03.125Z,55.89
2022-10-12T16:07:05.367Z,55.97
2022-10-12T16:09:07.581Z,56.01
2022-10-12T16:11:13.592Z,55.61
2022-10-12T16:13:16.937Z,55.97
2022-10-12T16:15:30.006Z,55.70
2022-10-12T16:17:32.693Z,55.81
2022-10-12T16:19:34.821Z,55.96
2022-10-12T16:21:37.089Z,55.63
2022-10-12T16:23:41.068Z,55.68
2022-10-12T16:25:43.519Z,55.55
2022-10-12T16:27:46.565Z,55.20
2022-10-12T16:29:48.855Z,54.72
2022-10-12T16:31:51.474Z,54.60
2022-10-12T16:33:56.079Z,54.89
2022-10-12T16:35:58.452Z,55.16
2022-10-12T16:38:00.886Z,55.11
2022-10-12T16:40:04.988Z,55.12
2022-10-12T16:42:07.317Z,54.66
2022-10-12T16:44:12.159Z,55.05
2022-10-12T16:46:14.356Z,55.09
2022-10-12T16:48:16.650Z,55.49
2022-10-12T16:50:19.689Z,55.27
2022-10-12T16:52:26.001Z,55.00
2022-10-12T16:54:29.182Z,55.36
2022-10-12T16:56:32.449Z,55.08
2022-10-12T16:58:36.411Z,55.18
2022-10-12T17:00:40.581Z,54.99
2022-10-12T17:02:42.767Z,54.97
2022-10-12T17:04:47.286Z,54.75
2022-10-12T17:06:49.477Z,55.26
2022-10-12T17:08:51.470Z,55.03
2022-10-12T17:10:53.790Z,55.45
2022-10-12T17:12:56.425Z,55.47
2022-10-12T17:14:58.519Z,55.26
2022-10-12T17:17:03.036Z,55.17
2022-10-12T17:19:08.763Z,55.46
2022-10-12T17:21:10.961Z,55.46
2022-10-12T17:23:13.158Z,55.70
2022-10-12T17:25:15.788Z,55.86
2022-10-12T17:27:18.295Z,56.21
2022-10-12T17:29:21.824Z,55.90
2022-10-12T17:31:24.292Z,56.00
2022-10-12T17:33:26.451Z,56.48
2022-10-12T17:35:30.826Z,56.05
2022-10-12T17:37:33.059Z,56.25
2022-10-12T17:39:39.443Z,56.45
2022-10-12T17:41:41.718Z,56.75
2022-10-12T17:43:43.743Z,56.63
2022-10-12T17:45:48.555Z,57.04
2022-10-12T17:47:50.607Z,56.73
2022-10-12T17:49:52.576Z,56.78
2022-10-12T17:55:49.095Z,57.21
2022-10-12T17:57:52.313Z,57.11
2022-10-12T17:59:54.182Z,56.93
2022-10-12T18:01:56.433Z,57.03
2022-10-12T18:04:04.937Z,57.59
2022-10-12T18:06:12.395Z,57.33
2022-10-12T18:08:17.367Z,57.22
2022-10-12T18:10:19.523Z,57.05
2022-10-12T18:12:22.884Z,57.14
2022-10-12T18:14:24.940Z,57.13
2022-10-12T18:16:29.842Z,57.03
2022-10-12T18:18:31.849Z,57.15
2022-10-12T18:20:34.006Z,57.22
2022-10-12T18:22:35.850Z,57.44
2022-10-12T18:24:39.671Z,57.46
2022-10-12T18:26:43.321Z,57.36
2022-10-12T18:28:46.953Z,57.17
2022-10-12T18:30:50.704Z,57.52
2022-10-12T18:32:52.916Z,57.58
2022-10-12T18:34:55.209Z,57.45
2022-10-12T18:36:57.957Z,57.58
2022-10-12T18:39:01.894Z,57.41
2022-10-12T18:41:10.056Z,57.46
2022-10-12T18:43:12.566Z,57.31
2022-10-12T18:45:14.916Z,57.10
2022-10-12T18:47:19.791Z,56.66
2022-10-12T18:49:28.242Z,57.23
2022-10-12T18:51:32.527Z,57.25
2022-10-12T18:53:35.820Z,56.96
2022-10-12T18:55:38.521Z,57.21
2022-10-12T18:57:40.688Z,56.88
2022-10-12T18:59:42.796Z,56.68
2022-10-12T19:01:45.297Z,57.03
2022-10-12T19:03:48.707Z,56.82
2022-10-12T19:05:50.946Z,56.79
2022-10-12T19:07:53.404Z,56.75
2022-10-12T19:09:55.665Z,56.73
2022-10-12T19:11:58.021Z,56.32
2022-10-12T19:14:05.893Z,56.85
2022-10-12T19:16:11.686Z,56.78
2022-10-12T19:18:13.755Z,56.71
2022-10-12T19:20:15.774Z,56.81
2022-10-12T19:22:18.271Z,56.92
2022-10-12T19:24:21.330Z,56.59
2022-10-12T19:26:26.548Z,56.82
2022-10-12T19:28:28.721Z,56.92
2022-10-12T19:30:31.511Z,57.04
2022-10-12T19:32:33.959Z,56.83
2022-10-12T19:34:35.967Z,56.93
2022-10-12T19:36:39.120Z,56.85
2022-10-12T19:38:41.255Z,56.92
2022-10-12T19:41:48.362Z,57.04
2022-10-12T19:43:51.031Z,56.72
2022-10-12T19:45:53.210Z,56.77
2022-10-12T19:47:55.424Z,56.27
2022-10-12T19:49:57.767Z,56.39
2022-10-12T19:51:59.840Z,56.58
2022-10-12T19:54:05.091Z,56.58
2022-10-12T19:56:13.913Z,56.07
2022-10-12T19:58:16.063Z,56.00
2022-10-12T20:00:19.015Z,55.82
2022-10-12T20:02:21.279Z,55.87
2022-10-12T20:04:24.271Z,55.79
2022-10-12T20:06:28.965Z,55.66
2022-10-12T20:08:31.109Z,55.10
2022-10-12T20:10:33.358Z,55.40
2022-10-12T20:12:35.659Z,55.21
2022-10-12T20:14:38.248Z,55.28
2022-10-12T20:16:40.368Z,55.26
2022-10-12T20:18:42.602Z,55.14
2022-10-12T20:20:44.720Z,55.12
2022-10-12T20:22:46.852Z,55.05
2022-10-12T20:24:49.411Z,55.06
2022-10-12T20:26:51.645Z,55.31
2022-10-12T20:28:54.858Z,55.28
2022-10-12T20:31:00.494Z,55.01
2022-10-12T20:33:03.427Z,55.11
2022-10-12T20:35:05.965Z,55.33
2022-10-12T20:37:08.642Z,55.13
2022-10-12T20:39:10.684Z,55.19
2022-10-12T20:41:15.221Z,54.95
2022-10-12T20:43:17.454Z,55.28
2022-10-12T20:45:19.838Z,55.13
2022-10-12T20:47:22.153Z,55.25
2022-10-12T20:49:24.472Z,55.12
2022-10-12T20:51:29.094Z,55.58
2022-10-12T20:53:33.764Z,55.93
2022-10-12T20:55:38.863Z,55.95
2022-10-12T20:57:42.281Z,56.15
2022-10-12T20:59:45.877Z,56.19
2022-10-12T21:01:48.710Z,56.47
2022-10-12T21:03:54.576Z,56.50
2022-10-12T21:05:56.531Z,56.42
2022-10-12T21:08:01.450Z,56.80
2022-10-12T21:10:03.810Z,57.08
2022-10-12T21:12:05.981Z,57.51
2022-10-12T21:14:12.009Z,58.59
2022-10-12T21:16:15.037Z,59.05
2022-10-12T21:18:17.331Z,58.91
2022-10-12T21:20:19.686Z,58.50
2022-10-12T21:22:21.790Z,58.08
2022-10-12T21:24:23.832Z,58.23
2022-10-12T21:26:28.485Z,58.70
2022-10-12T21:28:30.403Z,58.42
2022-10-12T21:30:32.502Z,58.20
2022-10-12T21:32:34.571Z,58.03
2022-10-12T21:34:38.667Z,58.70
2022-10-12T21:36:40.630Z,58.07
2022-10-12T21:38:46.557Z,58.16
2022-10-12T21:40:49.102Z,59.16
2022-10-12T21:42:50.964Z,58.50
2022-10-12T21:44:53.171Z,58.61
2022-10-12T21:46:55.327Z,58.76
2022-10-12T21:48:58.003Z,59.59
2022-10-12T21:51:01.184Z,60.23
2022-10-12T21:53:03.181Z,59.52
2022-10-12T21:55:05.329Z,59.53
2022-10-12T21:57:07.376Z,59.34
2022-10-12T21:59:10.413Z,59.94
2022-10-12T22:01:15.652Z,59.45
2022-10-12T22:03:18.087Z,59.74
2022-10-12T22:05:20.361Z,59.20
2022-10-12T22:07:25.094Z,59.34
2022-10-12T22:09:27.231Z,59.81
2022-10-12T22:11:33.548Z,59.46
2022-10-12T22:13:36.368Z,59.91
2022-10-12T22:15:39.157Z,59.97
2022-10-12T22:17:46.485Z,60.24
2022-10-12T22:19:48.868Z,60.14
2022-10-12T22:21:52.341Z,60.50
2022-10-12T22:23:54.537Z,60.51
2022-10-12T22:26:02.306Z,60.92
2022-10-12T22:28:04.298Z,60.14
2022-10-12T22:30:08.098Z,59.45
2022-10-12T22:32:10.148Z,60.10
2022-10-12T22:34:12.702Z,59.80
2022-10-12T22:36:15.583Z,59.90
2022-10-12T22:38:17.539Z,60.20
2022-10-12T22:40:20.022Z,59.71
2022-10-12T22:42:22.441Z,60.16
2022-10-12T22:44:24.465Z,59.88
2022-10-12T22:46:29.669Z,59.86
2022-10-12T22:48:32.905Z,59.89
2022-10-12T22:50:35.082Z,60.24
2022-10-12T22:52:40.067Z,60.03
2022-10-12T22:54:42.000Z,60.72
2022-10-12T22:56:43.935Z,60.93
2022-10-12T22:58:48.593Z,60.36
2022-10-12T23:00:50.735Z,60.47
2022-10-12T23:02:52.798Z,59.99
2022-10-12T23:04:54.831Z,61.03
2022-10-12T23:06:57.046Z,61.25
2022-10-12T23:09:02.266Z,61.60
2022-10-12T23:11:13.764Z,61.67
2022-10-12T23:13:15.708Z,61.11
2022-10-12T23:15:17.959Z,60.79
2022-10-12T23:17:20.656Z,60.26
2022-10-12T23:19:22.804Z,60.40
2022-10-12T23:21:24.812Z,60.71
2022-10-12T23:23:28.231Z,60.78
2022-10-12T23:25:30.503Z,61.29
2022-10-12T23:27:32.441Z,60.65
2022-10-12T23:29:34.386Z,60.44
2022-10-12T23:31:36.615Z,60.96
2022-10-12T23:33:38.712Z,61.66
2022-10-12T23:35:40.805Z,61.48
2022-10-12T23:37:44.253Z,61.35
2022-10-12T23:39:48.077Z,61.18
2022-10-12T23:41:51.086Z,60.74
2022-10-12T23:43:53.288Z,60.74
2022-10-12T23:45:55.793Z,61.26
2022-10-12T23:47:57.891Z,61.20
2022-10-12T23:50:00.158Z,61.00
2022-10-12T23:52:02.123Z,60.48
2022-10-12T23:54:04.288Z,61.19
2022-10-12T23:56:07.114Z,60.50
2022-10-12T23:58:12.318Z,60.20
